Clayton Township, Michigan
Current Conditions -  °F | °C
As of 6:53 AM on Sunday 23 Nov 2014 (Local Time) from KADG Reporting Station
Haze Haze  
Wind Chill: 39°   Ceiling: 2900
Heat Index: 43°   Visibility: 6mi
Dew Point: 42°   Wind: 7mph
Humidity: 97%   Direction: 200°SSW
Pressure: 29.93"   Gusts: NA
Location:  41.8643°N, 84.2151°W
Report Text: KADG 231153Z AUTO 20006KT 6SM BR OVC029 06/06 A2993 RMK AO2 RAE24 SLP142 P0000 60000 T00610056 10089 20061 56008
Loading
Personal Weather Stations






























Interactive Weather Map New forecast layout! Learn more

10-Day Weather Forecast

Advertisements
Track Severe Weather on mobile